createdAt,value
2018-04-30T00:00:00.157Z,99807.78
2018-04-30T00:02:25.973Z,99797.80
2018-04-30T00:04:51.781Z,99799.98
2018-04-30T00:07:17.613Z,99792.70
2018-04-30T00:09:43.426Z,99790.55
2018-04-30T00:12:09.237Z,99787.02
2018-04-30T00:14:35.049Z,99782.13
2018-04-30T00:17:00.853Z,99779.35
2018-04-30T00:19:26.663Z,99774.55
2018-04-30T00:21:52.468Z,99770.14
2018-04-30T00:24:18.276Z,99767.85
2018-04-30T00:26:44.082Z,99766.19
2018-04-30T00:29:09.952Z,99758.66
2018-04-30T00:31:35.757Z,99752.88
2018-04-30T00:34:01.698Z,99744.08
2018-04-30T00:36:27.530Z,99734.00
2018-04-30T00:38:54.285Z,99727.97
2018-04-30T00:41:20.280Z,99735.89
2018-04-30T00:43:46.090Z,99735.25
2018-04-30T00:46:12.029Z,99733.44
2018-04-30T00:48:37.941Z,99728.66
2018-04-30T00:51:03.758Z,99728.77
2018-04-30T00:53:29.716Z,99730.78
2018-04-30T00:55:55.546Z,99725.05
2018-04-30T00:58:21.379Z,99722.41
2018-04-30T01:00:47.213Z,99720.61
2018-04-30T01:03:13.057Z,99722.16
2018-04-30T01:05:38.993Z,99715.73
2018-04-30T01:08:04.796Z,99711.56
2018-04-30T01:10:30.596Z,99705.36
2018-04-30T01:12:56.397Z,99702.80
2018-04-30T01:15:22.205Z,99703.29
2018-04-30T01:17:48.014Z,99706.68
2018-04-30T01:20:13.854Z,99705.88
2018-04-30T01:22:39.657Z,99705.14
2018-04-30T01:25:05.500Z,99708.61
2018-04-30T01:27:31.328Z,99706.35
2018-04-30T01:29:57.136Z,99706.59
2018-04-30T01:32:22.935Z,99699.23
2018-04-30T01:34:48.834Z,99695.20
2018-04-30T01:37:14.605Z,99688.19
2018-04-30T01:39:40.412Z,99679.36
2018-04-30T01:42:06.208Z,99678.78
2018-04-30T01:44:32.056Z,99666.33
2018-04-30T01:46:57.897Z,99676.62
2018-04-30T01:49:23.697Z,99665.81
2018-04-30T01:51:49.588Z,99668.30
2018-04-30T01:54:15.490Z,99662.42
2018-04-30T01:56:41.312Z,99652.25
2018-04-30T01:59:07.114Z,99653.71
2018-04-30T02:01:32.911Z,99637.61
2018-04-30T02:03:58.717Z,99639.92
2018-04-30T02:06:24.520Z,99638.99
2018-04-30T02:08:50.320Z,99629.25
2018-04-30T02:11:17.527Z,99626.93
2018-04-30T02:13:44.144Z,99617.64
2018-04-30T02:16:09.949Z,99609.98
2018-04-30T02:18:35.752Z,99606.42
2018-04-30T02:21:02.598Z,99603.09
2018-04-30T02:23:29.393Z,99600.51
2018-04-30T02:25:55.193Z,99596.31
2018-04-30T02:28:21.033Z,99594.98
2018-04-30T02:30:46.833Z,99584.97
2018-04-30T02:33:12.672Z,99582.08
2018-04-30T02:35:38.492Z,99569.34
2018-04-30T02:38:04.292Z,99564.88
2018-04-30T02:40:30.101Z,99564.13
2018-04-30T02:42:55.902Z,99563.17
2018-04-30T02:45:22.528Z,99552.65
2018-04-30T02:47:48.327Z,99548.17
2018-04-30T02:50:14.222Z,99535.16
2018-04-30T02:52:40.844Z,99535.67
2018-04-30T02:55:07.520Z,99535.76
2018-04-30T02:57:33.356Z,99536.16
2018-04-30T02:59:59.157Z,99536.57
2018-04-30T03:02:24.958Z,99524.25
2018-04-30T03:04:51.620Z,99522.44
2018-04-30T03:07:17.429Z,99525.07
2018-04-30T03:09:43.406Z,99518.63
2018-04-30T03:12:09.172Z,99510.75
2018-04-30T03:14:34.968Z,99507.80
2018-04-30T03:17:00.795Z,99502.83
2018-04-30T03:19:26.588Z,99489.61
2018-04-30T03:21:52.388Z,99490.34
2018-04-30T03:24:18.189Z,99486.11
2018-04-30T03:26:44.011Z,99482.49
2018-04-30T03:29:09.813Z,99479.98
2018-04-30T03:31:35.786Z,99487.03
2018-04-30T03:34:01.675Z,99492.31
2018-04-30T03:36:27.494Z,99495.22
2018-04-30T03:38:53.445Z,99485.20
2018-04-30T03:41:19.249Z,99479.08
2018-04-30T03:43:45.049Z,99480.25
2018-04-30T03:46:10.853Z,99473.62
2018-04-30T03:48:37.507Z,99472.70
2018-04-30T03:51:03.309Z,99483.37
2018-04-30T03:53:29.152Z,99478.09
2018-04-30T03:55:55.899Z,99476.59
2018-04-30T03:58:21.695Z,99475.34
2018-04-30T04:00:53.721Z,99470.88
2018-04-30T04:03:25.787Z,99466.89
2018-04-30T04:05:57.800Z,99462.44
2018-04-30T04:08:24.552Z,99464.50
2018-04-30T04:10:50.504Z,99460.97
2018-04-30T04:13:17.132Z,99462.11
2018-04-30T04:15:42.964Z,99450.70
2018-04-30T04:18:08.774Z,99449.46
2018-04-30T04:20:34.605Z,99441.69
2018-04-30T04:23:01.452Z,99444.26
2018-04-30T04:25:28.164Z,99441.09
2018-04-30T04:27:53.998Z,99442.59
2018-04-30T04:30:19.828Z,99441.94
2018-04-30T04:32:45.690Z,99436.56
2018-04-30T04:35:12.433Z,99441.75
2018-04-30T04:37:39.264Z,99437.22
2018-04-30T04:40:06.065Z,99448.56
2018-04-30T04:42:32.932Z,99455.41
2018-04-30T04:44:59.593Z,99452.00
2018-04-30T04:47:26.369Z,99439.04
2018-04-30T04:49:53.092Z,99423.20
2018-04-30T04:52:18.893Z,99418.84
2018-04-30T04:54:44.688Z,99426.56
2018-04-30T04:57:10.519Z,99433.75
2018-04-30T04:59:36.316Z,99425.81
2018-04-30T05:02:02.148Z,99417.38
2018-04-30T05:04:27.983Z,99416.38
2018-04-30T05:06:53.812Z,99421.67
2018-04-30T05:09:19.636Z,99422.06
2018-04-30T05:11:45.468Z,99414.53
2018-04-30T05:14:12.085Z,99410.68
2018-04-30T05:16:37.910Z,99410.91
2018-04-30T05:19:03.701Z,99412.57
2018-04-30T05:21:29.501Z,99404.47
2018-04-30T05:23:55.315Z,99406.71
2018-04-30T05:26:21.136Z,99401.06
2018-04-30T05:28:46.940Z,99408.09
2018-04-30T05:31:12.749Z,99402.16
2018-04-30T05:33:38.560Z,99393.98
2018-04-30T05:36:04.516Z,99396.03
2018-04-30T05:38:30.312Z,99400.02
2018-04-30T05:40:57.032Z,99401.48
2018-04-30T05:43:22.820Z,99396.12
2018-04-30T05:45:48.621Z,99391.75
2018-04-30T05:48:14.417Z,99394.88
2018-04-30T05:50:40.224Z,99379.81
2018-04-30T05:53:06.045Z,99383.30
2018-04-30T05:55:31.844Z,99377.51
2018-04-30T05:57:57.644Z,99373.27
2018-04-30T06:00:23.446Z,99369.70
2018-04-30T06:02:49.351Z,99365.32
2018-04-30T06:05:15.149Z,99359.64
2018-04-30T06:07:40.945Z,99356.16
2018-04-30T06:10:06.743Z,99359.37
2018-04-30T06:12:32.539Z,99360.37
2018-04-30T06:14:58.341Z,99357.08
2018-04-30T06:17:24.148Z,99359.95
2018-04-30T06:19:50.189Z,99351.42
2018-04-30T06:22:15.984Z,99351.28
2018-04-30T06:24:41.784Z,99347.53
2018-04-30T06:27:07.589Z,99343.06
2018-04-30T06:29:33.420Z,99340.83
2018-04-30T06:31:59.328Z,99336.03
2018-04-30T06:34:25.142Z,99335.53
2018-04-30T06:36:50.936Z,99335.39
2018-04-30T06:39:16.733Z,99322.46
2018-04-30T06:41:42.556Z,99314.84
2018-04-30T06:44:08.358Z,99308.63
2018-04-30T06:46:34.272Z,99304.02
2018-04-30T06:49:00.072Z,99298.11
2018-04-30T06:51:25.901Z,99306.48
2018-04-30T06:53:52.503Z,99311.64
2018-04-30T06:56:18.323Z,99301.52
2018-04-30T06:58:44.745Z,99303.91
2018-04-30T07:01:10.597Z,99305.55
2018-04-30T07:03:36.424Z,99298.81
2018-04-30T07:06:02.217Z,99296.30
2018-04-30T07:08:28.013Z,99296.90
2018-04-30T07:10:54.592Z,99301.25
2018-04-30T07:13:20.412Z,99297.05
2018-04-30T07:15:47.113Z,99293.57
2018-04-30T07:18:13.768Z,99294.95
2018-04-30T07:20:40.540Z,99297.98
2018-04-30T07:23:07.274Z,99298.72
2018-04-30T07:25:34.179Z,99305.83
2018-04-30T07:27:59.971Z,99304.11
2018-04-30T07:30:26.678Z,99304.67
2018-04-30T07:32:52.481Z,99297.48
2018-04-30T07:35:18.422Z,99296.46
2018-04-30T07:37:44.224Z,99289.02
2018-04-30T07:40:10.036Z,99288.20
2018-04-30T07:42:35.863Z,99291.76
2018-04-30T07:45:01.661Z,99285.64
2018-04-30T07:47:27.521Z,99286.96
2018-04-30T07:49:54.280Z,99284.72
2018-04-30T07:52:20.085Z,99281.17
2018-04-30T07:54:46.787Z,99280.16
2018-04-30T07:57:12.963Z,99281.58
2018-04-30T07:59:39.616Z,99284.64
2018-04-30T08:02:06.340Z,99280.27
2018-04-30T08:04:33.174Z,99282.73
2018-04-30T08:06:59.808Z,99289.20
2018-04-30T08:09:26.544Z,99280.17
2018-04-30T08:11:52.349Z,99288.12
2018-04-30T08:14:18.172Z,99284.23
2018-04-30T08:16:44.014Z,99286.16
2018-04-30T08:19:09.813Z,99289.12
2018-04-30T08:21:35.643Z,99277.47
2018-04-30T08:24:01.480Z,99279.20
2018-04-30T08:26:27.316Z,99275.66
2018-04-30T08:28:53.111Z,99283.09
2018-04-30T08:31:18.932Z,99290.86
2018-04-30T08:33:44.793Z,99288.62
2018-04-30T08:36:10.602Z,99288.39
2018-04-30T08:38:37.410Z,99286.24
2018-04-30T08:41:04.260Z,99285.47
2018-04-30T08:43:30.182Z,99284.42
2018-04-30T08:45:56.002Z,99290.95
2018-04-30T08:48:21.804Z,99283.74
2018-04-30T08:50:47.750Z,99295.52
2018-04-30T08:53:13.556Z,99294.09
2018-04-30T08:55:39.364Z,99301.31
2018-04-30T08:58:05.156Z,99301.54
2018-04-30T09:00:31.113Z,99305.42
2018-04-30T09:02:56.860Z,99299.39
2018-04-30T09:05:22.684Z,99300.55
2018-04-30T09:07:48.487Z,99310.89
2018-04-30T09:10:14.507Z,99303.77
2018-04-30T09:12:41.149Z,99308.34
2018-04-30T09:15:07.910Z,99312.05
2018-04-30T09:17:33.740Z,99319.26
2018-04-30T09:19:59.812Z,99328.76
2018-04-30T09:22:26.603Z,99329.17
2018-04-30T09:24:52.409Z,99323.05
2018-04-30T09:27:18.218Z,99328.76
2018-04-30T09:29:44.022Z,99333.59
2018-04-30T09:32:09.837Z,99339.03
2018-04-30T09:34:35.641Z,99332.91
2018-04-30T09:37:01.445Z,99343.59
2018-04-30T09:39:27.275Z,99352.27
2018-04-30T09:41:53.084Z,99360.39
2018-04-30T09:44:18.955Z,99356.91
2018-04-30T09:46:44.752Z,99368.24
2018-04-30T09:49:11.220Z,99376.27
2018-04-30T09:51:37.033Z,99384.04
2018-04-30T09:54:04.496Z,99388.77
2018-04-30T09:56:30.356Z,99400.75
2018-04-30T09:58:56.135Z,99419.69
2018-04-30T10:01:21.941Z,99414.90
2018-04-30T10:03:48.588Z,99430.95
2018-04-30T10:06:14.412Z,99441.65
2018-04-30T10:08:40.227Z,99449.73
2018-04-30T10:11:06.027Z,99449.97
2018-04-30T10:13:31.829Z,99470.93
2018-04-30T10:15:57.669Z,99492.38
2018-04-30T10:18:23.461Z,99484.00
2018-04-30T10:20:49.276Z,99501.70
2018-04-30T10:23:15.084Z,99506.94
2018-04-30T10:25:40.969Z,99516.70
2018-04-30T10:28:06.720Z,99531.26
2018-04-30T10:30:32.520Z,99543.27
2018-04-30T10:32:58.323Z,99549.08
2018-04-30T10:35:24.120Z,99553.91
2018-04-30T10:37:49.929Z,99546.78
2018-04-30T10:40:15.791Z,99557.17
2018-04-30T10:42:41.621Z,99568.17
2018-04-30T10:45:07.432Z,99568.70
2018-04-30T10:47:33.233Z,99582.34
2018-04-30T10:50:00.004Z,99586.89
2018-04-30T10:52:25.891Z,99588.94
2018-04-30T10:54:51.696Z,99583.64
2018-04-30T10:57:17.496Z,99603.52
2018-04-30T10:59:43.363Z,99603.58
2018-04-30T11:02:09.164Z,99602.10
2018-04-30T11:04:34.984Z,99605.53
2018-04-30T11:07:00.804Z,99616.91
2018-04-30T11:09:27.003Z,99610.92
2018-04-30T11:11:52.824Z,99617.80
2018-04-30T11:14:18.636Z,99625.28
2018-04-30T11:16:45.435Z,99626.16
2018-04-30T11:19:11.276Z,99624.15
2018-04-30T11:21:38.104Z,99633.09
2018-04-30T11:24:03.915Z,99628.70
2018-04-30T11:26:29.717Z,99638.81
2018-04-30T11:28:56.349Z,99654.05
2018-04-30T11:31:22.225Z,99643.48
2018-04-30T11:33:48.024Z,99646.93
2018-04-30T11:36:13.842Z,99657.25
2018-04-30T11:38:39.652Z,99648.00
2018-04-30T11:41:05.513Z,99663.80
2018-04-30T11:43:31.334Z,99673.89
2018-04-30T11:45:57.256Z,99675.65
2018-04-30T11:48:23.076Z,99690.45
2018-04-30T11:50:48.893Z,99693.63
2018-04-30T11:53:14.711Z,99694.58
2018-04-30T11:55:40.563Z,99694.19
2018-04-30T11:58:06.385Z,99693.16
2018-04-30T12:00:32.188Z,99695.25
2018-04-30T12:02:58.025Z,99707.41
2018-04-30T12:05:23.881Z,99691.98
2018-04-30T12:07:49.715Z,99700.20
2018-04-30T12:10:15.549Z,99703.56
2018-04-30T12:12:41.404Z,99701.93
2018-04-30T12:15:07.212Z,99707.78
2018-04-30T12:17:33.081Z,99714.80
2018-04-30T12:19:58.897Z,99721.22
2018-04-30T12:22:24.708Z,99713.59
2018-04-30T12:24:51.487Z,99718.84
2018-04-30T12:27:17.432Z,99716.55
2018-04-30T12:29:43.417Z,99714.88
2018-04-30T12:32:09.180Z,99723.94
2018-04-30T12:34:34.996Z,99728.03
2018-04-30T12:37:01.581Z,99728.14
2018-04-30T12:39:28.126Z,99733.68
2018-04-30T12:41:56.440Z,99734.00
2018-04-30T12:44:23.775Z,99740.27
2018-04-30T12:46:49.996Z,99737.05
2018-04-30T12:49:17.237Z,99740.02
2018-04-30T12:51:43.572Z,99734.50
2018-04-30T12:54:09.701Z,99729.13
2018-04-30T12:56:36.247Z,99720.52
2018-04-30T12:59:02.603Z,99726.15
2018-04-30T13:01:28.424Z,99727.20
2018-04-30T13:03:54.247Z,99724.91
2018-04-30T13:06:20.053Z,99738.78
2018-04-30T13:08:45.871Z,99731.50
2018-04-30T13:11:11.705Z,99726.04
2018-04-30T13:13:37.519Z,99737.35
2018-04-30T13:16:03.336Z,99733.82
2018-04-30T13:18:29.144Z,99747.88
2018-04-30T13:20:55.041Z,99741.59
2018-04-30T13:23:21.840Z,99734.84
2018-04-30T13:25:48.548Z,99736.69
2018-04-30T13:28:14.348Z,99733.16
2018-04-30T13:30:40.236Z,99727.06
2018-04-30T13:33:06.068Z,99720.77
2018-04-30T13:35:31.862Z,99730.02
2018-04-30T13:37:57.728Z,99732.91
2018-04-30T13:40:23.529Z,99729.38
2018-04-30T13:42:49.336Z,99730.42
2018-04-30T13:45:15.154Z,99736.63
2018-04-30T13:47:40.960Z,99742.84
2018-04-30T13:50:07.681Z,99739.97
2018-04-30T13:52:33.484Z,99747.30
2018-04-30T13:54:59.284Z,99733.73
2018-04-30T13:57:25.084Z,99746.26
2018-04-30T13:59:50.877Z,99744.90
2018-04-30T14:02:16.701Z,99751.57
2018-04-30T14:04:42.546Z,99745.29
2018-04-30T14:07:08.357Z,99755.60
2018-04-30T14:09:34.185Z,99751.39
2018-04-30T14:12:00.034Z,99751.41
2018-04-30T14:14:26.796Z,99752.45
2018-04-30T14:16:52.600Z,99757.81
2018-04-30T14:19:18.405Z,99759.52
2018-04-30T14:21:45.179Z,99751.22
2018-04-30T14:24:11.944Z,99755.74
2018-04-30T14:26:37.746Z,99764.95
2018-04-30T14:29:04.533Z,99765.84
2018-04-30T14:31:30.336Z,99780.73
2018-04-30T14:33:56.196Z,99781.09
2018-04-30T14:36:22.040Z,99783.45
2018-04-30T14:38:48.820Z,99789.77
2018-04-30T14:41:15.594Z,99791.18
2018-04-30T14:43:41.577Z,99787.27
2018-04-30T14:46:07.388Z,99788.26
2018-04-30T14:48:33.259Z,99808.53
2018-04-30T14:50:59.980Z,99809.11
2018-04-30T14:53:25.771Z,99810.30
2018-04-30T14:55:51.577Z,99816.54
2018-04-30T14:58:17.408Z,99817.09
2018-04-30T15:00:43.285Z,99815.03
2018-04-30T15:03:10.112Z,99813.48
2018-04-30T15:05:35.908Z,99817.68
2018-04-30T15:08:01.739Z,99818.75
2018-04-30T15:10:27.583Z,99833.92
2018-04-30T15:12:54.276Z,99831.49
2018-04-30T15:15:20.077Z,99841.91
2018-04-30T15:17:45.876Z,99832.69
2018-04-30T15:20:11.712Z,99832.19
2018-04-30T15:22:37.554Z,99845.84
2018-04-30T15:25:04.903Z,99843.72
2018-04-30T15:27:30.748Z,99845.00
2018-04-30T15:29:56.704Z,99850.19
2018-04-30T15:32:22.499Z,99845.72
2018-04-30T15:34:48.305Z,99850.28
2018-04-30T15:37:14.373Z,99862.20
2018-04-30T15:39:40.189Z,99850.50
2018-04-30T15:42:06.062Z,99856.48
2018-04-30T15:44:32.462Z,99854.05
2018-04-30T15:46:58.265Z,99859.32
2018-04-30T15:49:25.139Z,99867.88
2018-04-30T15:51:50.908Z,99867.45
2018-04-30T15:54:17.082Z,99863.84
2018-04-30T15:56:43.317Z,99858.84
2018-04-30T15:59:09.922Z,99859.95
2018-04-30T16:01:35.739Z,99869.86
2018-04-30T16:04:01.545Z,99860.26
2018-04-30T16:06:28.312Z,99871.05
2018-04-30T16:08:55.105Z,99882.90
2018-04-30T16:11:20.944Z,99881.21
2018-04-30T16:13:46.755Z,99881.98
2018-04-30T16:16:13.391Z,99879.45
2018-04-30T16:18:39.201Z,99890.82
2018-04-30T16:21:04.999Z,99880.80
2018-04-30T16:23:30.883Z,99890.35
2018-04-30T16:25:56.701Z,99898.38
2018-04-30T16:28:23.472Z,99903.57
2018-04-30T16:30:50.204Z,99894.77
2018-04-30T16:33:15.999Z,99901.72
2018-04-30T16:35:41.807Z,99896.22
2018-04-30T16:38:07.624Z,99898.16
2018-04-30T16:40:33.416Z,99911.79
2018-04-30T16:43:00.164Z,99916.23
2018-04-30T16:45:25.964Z,99921.45
2018-04-30T16:47:51.764Z,99917.36
2018-04-30T16:50:17.591Z,99919.81
2018-04-30T16:52:43.488Z,99918.47
2018-04-30T16:55:09.373Z,99923.84
2018-04-30T16:57:35.364Z,99919.91
2018-04-30T17:00:09.260Z,99925.69
2018-04-30T17:02:35.316Z,99923.96
2018-04-30T17:05:01.117Z,99925.00
2018-04-30T17:07:28.040Z,99925.32
2018-04-30T17:09:53.842Z,99927.05
2018-04-30T17:12:20.509Z,99927.14
2018-04-30T17:14:46.314Z,99934.77
2018-04-30T17:17:12.241Z,99932.56
2018-04-30T17:19:38.040Z,99936.05
2018-04-30T17:22:03.983Z,99936.21
2018-04-30T17:24:29.792Z,99938.73
2018-04-30T17:26:55.600Z,99934.14
2018-04-30T17:29:21.409Z,99947.63
2018-04-30T17:31:47.209Z,99942.30
2018-04-30T17:34:13.013Z,99944.57
2018-04-30T17:36:38.844Z,99948.42
2018-04-30T17:39:04.660Z,99949.70
2018-04-30T17:41:30.501Z,99961.25
2018-04-30T17:43:56.310Z,99958.39
2018-04-30T17:46:22.113Z,99958.77
2018-04-30T17:48:47.918Z,99959.89
2018-04-30T17:51:13.724Z,99963.98
2018-04-30T17:53:39.527Z,99967.62
2018-04-30T17:56:05.329Z,99965.05
2018-04-30T17:58:31.178Z,99971.02
2018-04-30T18:00:56.986Z,99970.35
2018-04-30T18:03:22.950Z,99972.50
2018-04-30T18:05:48.796Z,99970.03
2018-04-30T18:08:15.473Z,99967.09
2018-04-30T18:10:41.404Z,99973.30
2018-04-30T18:13:07.225Z,99978.43
2018-04-30T18:15:33.055Z,99980.20
2018-04-30T18:17:58.881Z,99981.02
2018-04-30T18:20:26.850Z,99977.72
2018-04-30T18:22:55.932Z,99972.96
2018-04-30T18:25:21.869Z,99983.09
2018-04-30T18:27:47.874Z,99974.58
2018-04-30T18:30:13.713Z,99969.86
2018-04-30T18:32:39.512Z,99976.02
2018-04-30T18:35:06.253Z,99978.63
2018-04-30T18:37:32.063Z,99985.46
2018-04-30T18:39:57.863Z,99988.68
2018-04-30T18:42:23.747Z,99993.80
2018-04-30T18:44:50.548Z,99999.67
2018-04-30T18:47:16.441Z,100004.97
2018-04-30T18:49:42.284Z,100005.25
2018-04-30T18:52:08.084Z,100011.05
2018-04-30T18:54:33.923Z,100010.14
2018-04-30T18:56:59.731Z,100016.55
2018-04-30T18:59:25.636Z,100017.55
2018-04-30T19:01:51.472Z,100012.95
2018-04-30T19:04:17.268Z,100016.76
2018-04-30T19:06:43.131Z,100019.45
2018-04-30T19:09:08.933Z,100020.95
2018-04-30T19:11:34.880Z,100021.11
2018-04-30T19:14:00.695Z,100031.95
2018-04-30T19:16:26.501Z,100030.72
2018-04-30T19:18:52.309Z,100037.52
2018-04-30T19:21:18.120Z,100037.75
2018-04-30T19:23:43.925Z,100042.80
2018-04-30T19:26:09.733Z,100047.69
2018-04-30T19:28:35.719Z,100045.83
2018-04-30T19:31:01.638Z,100046.16
2018-04-30T19:33:27.441Z,100048.12
2018-04-30T19:35:54.816Z,100045.00
2018-04-30T19:38:21.861Z,100044.51
2018-04-30T19:40:47.821Z,100049.44
2018-04-30T19:43:13.624Z,100052.09
2018-04-30T19:45:39.432Z,100056.06
2018-04-30T19:48:05.255Z,100050.35
2018-04-30T19:50:32.020Z,100047.20
2018-04-30T19:52:57.867Z,100049.15
2018-04-30T19:55:23.692Z,100047.41
2018-04-30T19:57:49.496Z,100047.33
2018-04-30T20:00:15.338Z,100041.65
2018-04-30T20:02:41.153Z,100040.61
2018-04-30T20:05:06.957Z,100048.11
2018-04-30T20:07:32.761Z,100055.58
2018-04-30T20:09:58.646Z,100059.47
2018-04-30T20:12:31.453Z,100058.59
2018-04-30T20:14:57.260Z,100058.71
2018-04-30T20:17:23.093Z,100063.09
2018-04-30T20:19:48.896Z,100071.13
2018-04-30T20:22:14.733Z,100064.91
2018-04-30T20:24:40.540Z,100076.16
2018-04-30T20:27:06.368Z,100078.13
2018-04-30T20:29:32.204Z,100083.40
2018-04-30T20:31:58.226Z,100080.41
2018-04-30T20:34:24.077Z,100084.26
2018-04-30T20:36:49.948Z,100080.00
2018-04-30T20:39:15.840Z,100082.73
2018-04-30T20:41:41.759Z,100088.05
2018-04-30T20:44:08.391Z,100087.01
2018-04-30T20:46:34.235Z,100085.50
2018-04-30T20:49:01.014Z,100087.33
2018-04-30T20:51:26.822Z,100084.13
2018-04-30T20:53:52.624Z,100089.29
2018-04-30T20:56:18.573Z,100086.77
2018-04-30T20:58:45.392Z,100078.70
2018-04-30T21:01:11.234Z,100081.80
2018-04-30T21:03:37.072Z,100085.55
2018-04-30T21:06:04.025Z,100087.30
2018-04-30T21:08:35.944Z,100092.79
2018-04-30T21:11:02.257Z,100094.57
2018-04-30T21:13:28.065Z,100095.65
2018-04-30T21:15:53.887Z,100102.39
2018-04-30T21:18:19.721Z,100112.59
2018-04-30T21:20:46.528Z,100115.16
2018-04-30T21:23:12.365Z,100116.66
2018-04-30T21:25:39.945Z,100120.79
2018-04-30T21:28:06.697Z,100119.05
2018-04-30T21:30:32.501Z,100114.45
2018-04-30T21:32:58.308Z,100115.14
2018-04-30T21:35:24.119Z,100116.66
2018-04-30T21:37:50.825Z,100121.24
2018-04-30T21:40:16.653Z,100117.17
2018-04-30T21:42:42.460Z,100120.45
2018-04-30T21:45:08.816Z,100115.57
2018-04-30T21:47:34.724Z,100113.41
2018-04-30T21:50:01.481Z,100110.05
2018-04-30T21:52:27.290Z,100109.67
2018-04-30T21:54:55.011Z,100109.66
2018-04-30T21:57:21.653Z,100110.20
2018-04-30T21:59:47.612Z,100121.09
2018-04-30T22:02:13.449Z,100123.44
2018-04-30T22:04:39.260Z,100128.85
2018-04-30T22:07:05.067Z,100129.72
2018-04-30T22:09:30.921Z,100125.66
2018-04-30T22:11:57.595Z,100122.98
2018-04-30T22:14:24.365Z,100123.92
2018-04-30T22:16:50.209Z,100121.82
2018-04-30T22:19:16.827Z,100133.88
2018-04-30T22:21:43.569Z,100130.21
2018-04-30T22:24:09.373Z,100133.83
2018-04-30T22:26:35.307Z,100141.01
2018-04-30T22:29:01.148Z,100146.77
2018-04-30T22:31:26.940Z,100141.61
2018-04-30T22:33:54.271Z,100142.90
2018-04-30T22:36:27.984Z,100148.81
2018-04-30T22:38:53.781Z,100152.10
2018-04-30T22:41:19.777Z,100147.07
2018-04-30T22:43:45.580Z,100138.87
2018-04-30T22:46:11.386Z,100142.48
2018-04-30T22:48:38.021Z,100142.25
2018-04-30T22:51:04.883Z,100137.87
2018-04-30T22:53:31.605Z,100144.34
2018-04-30T22:55:57.412Z,100144.31
2018-04-30T22:58:23.217Z,100133.34
2018-04-30T23:00:49.043Z,100137.52
2018-04-30T23:03:14.836Z,100134.30
2018-04-30T23:05:40.641Z,100125.88
2018-04-30T23:08:06.479Z,100108.52
2018-04-30T23:10:33.196Z,100113.91
2018-04-30T23:12:59.040Z,100125.39
2018-04-30T23:15:24.844Z,100126.53
2018-04-30T23:17:51.545Z,100126.26
2018-04-30T23:20:17.466Z,100129.99
2018-04-30T23:22:43.271Z,100134.30
2018-04-30T23:25:09.076Z,100127.36
2018-04-30T23:27:34.876Z,100129.86
2018-04-30T23:30:00.680Z,100137.28
2018-04-30T23:32:26.481Z,100139.31
2018-04-30T23:34:52.935Z,100130.12
2018-04-30T23:37:18.736Z,100138.53
2018-04-30T23:39:44.641Z,100143.42
2018-04-30T23:42:10.440Z,100147.59
2018-04-30T23:44:36.231Z,100159.17
2018-04-30T23:47:02.040Z,100174.50
2018-04-30T23:49:28.683Z,100179.98
2018-04-30T23:51:54.487Z,100171.02
2018-04-30T23:54:21.221Z,100164.39
2018-04-30T23:56:47.938Z,100164.50
2018-04-30T23:59:13.748Z,100162.81
